sensor_id;sensor_type;location;lat;lon;timestamp;temperature;humidity
23803;DHT22;12082;51.786;6.018;2023-12-14T00:00:25;6.30;99.90
23803;DHT22;12082;51.786;6.018;2023-12-14T00:02:50;6.30;99.90
23803;DHT22;12082;51.786;6.018;2023-12-14T00:05:16;6.30;99.90
23803;DHT22;12082;51.786;6.018;2023-12-14T00:07:41;6.30;99.90
23803;DHT22;12082;51.786;6.018;2023-12-14T00:10:07;6.40;99.90
23803;DHT22;12082;51.786;6.018;2023-12-14T00:12:33;6.40;99.90
23803;DHT22;12082;51.786;6.018;2023-12-14T00:14:58;6.40;99.90
23803;DHT22;12082;51.786;6.018;2023-12-14T00:17:24;6.40;99.90
23803;DHT22;12082;51.786;6.018;2023-12-14T00:19:50;6.30;99.90
23803;DHT22;12082;51.786;6.018;2023-12-14T00:22:15;6.30;99.90
23803;DHT22;12082;51.786;6.018;2023-12-14T00:24:41;6.30;99.90
23803;DHT22;12082;51.786;6.018;2023-12-14T00:27:07;6.30;99.90
23803;DHT22;12082;51.786;6.018;2023-12-14T00:29:32;6.20;99.90
23803;DHT22;12082;51.786;6.018;2023-12-14T00:31:58;6.20;99.90
23803;DHT22;12082;51.786;6.018;2023-12-14T00:34:24;6.20;99.90
23803;DHT22;12082;51.786;6.018;2023-12-14T00:36:49;6.20;99.90
23803;DHT22;12082;51.786;6.018;2023-12-14T00:39:15;6.30;99.90
23803;DHT22;12082;51.786;6.018;2023-12-14T00:41:40;6.20;99.90
23803;DHT22;12082;51.786;6.018;2023-12-14T00:44:06;6.20;99.90
23803;DHT22;12082;51.786;6.018;2023-12-14T00:46:31;6.20;99.90
23803;DHT22;12082;51.786;6.018;2023-12-14T00:48:57;6.20;99.90
23803;DHT22;12082;51.786;6.018;2023-12-14T00:51:23;6.10;99.90
23803;DHT22;12082;51.786;6.018;2023-12-14T00:53:48;6.20;99.90
23803;DHT22;12082;51.786;6.018;2023-12-14T00:56:14;6.20;99.90
23803;DHT22;12082;51.786;6.018;2023-12-14T00:58:39;6.20;99.90
23803;DHT22;12082;51.786;6.018;2023-12-14T01:01:05;6.10;99.90
23803;DHT22;12082;51.786;6.018;2023-12-14T01:03:30;6.10;99.90
23803;DHT22;12082;51.786;6.018;2023-12-14T01:05:56;6.10;99.90
23803;DHT22;12082;51.786;6.018;2023-12-14T01:08:21;6.00;99.90
23803;DHT22;12082;51.786;6.018;2023-12-14T01:10:47;6.00;99.90
23803;DHT22;12082;51.786;6.018;2023-12-14T01:13:13;6.00;99.90
23803;DHT22;12082;51.786;6.018;2023-12-14T01:15:38;6.10;99.90
23803;DHT22;12082;51.786;6.018;2023-12-14T01:18:04;6.00;99.90
23803;DHT22;12082;51.786;6.018;2023-12-14T01:20:29;6.00;99.90
23803;DHT22;12082;51.786;6.018;2023-12-14T01:22:55;6.00;99.90
23803;DHT22;12082;51.786;6.018;2023-12-14T01:25:20;6.00;99.90
23803;DHT22;12082;51.786;6.018;2023-12-14T01:27:46;6.00;99.90
23803;DHT22;12082;51.786;6.018;2023-12-14T01:30:12;5.90;99.90
23803;DHT22;12082;51.786;6.018;2023-12-14T01:32:37;5.90;99.90
23803;DHT22;12082;51.786;6.018;2023-12-14T01:35:03;5.90;99.90
23803;DHT22;12082;51.786;6.018;2023-12-14T01:37:29;5.90;99.90
23803;DHT22;12082;51.786;6.018;2023-12-14T01:39:55;5.90;99.90
23803;DHT22;12082;51.786;6.018;2023-12-14T01:42:20;5.90;99.90
23803;DHT22;12082;51.786;6.018;2023-12-14T01:44:46;5.80;99.90
23803;DHT22;12082;51.786;6.018;2023-12-14T01:47:11;5.80;99.90
23803;DHT22;12082;51.786;6.018;2023-12-14T01:49:37;5.80;99.90
23803;DHT22;12082;51.786;6.018;2023-12-14T01:52:03;5.80;99.90
23803;DHT22;12082;51.786;6.018;2023-12-14T01:54:28;5.80;99.90
23803;DHT22;12082;51.786;6.018;2023-12-14T01:56:54;5.80;99.90
23803;DHT22;12082;51.786;6.018;2023-12-14T01:59:20;5.80;99.90
23803;DHT22;12082;51.786;6.018;2023-12-14T02:01:47;5.70;99.90
23803;DHT22;12082;51.786;6.018;2023-12-14T02:04:17;5.80;99.90
23803;DHT22;12082;51.786;6.018;2023-12-14T02:06:43;5.80;99.90
23803;DHT22;12082;51.786;6.018;2023-12-14T02:09:09;5.70;99.90
23803;DHT22;12082;51.786;6.018;2023-12-14T02:11:35;5.70;99.90
23803;DHT22;12082;51.786;6.018;2023-12-14T02:14:05;5.70;99.90
23803;DHT22;12082;51.786;6.018;2023-12-14T02:16:30;5.70;99.90
23803;DHT22;12082;51.786;6.018;2023-12-14T02:18:57;5.70;99.90
23803;DHT22;12082;51.786;6.018;2023-12-14T02:21:22;5.70;99.90
23803;DHT22;12082;51.786;6.018;2023-12-14T02:23:48;5.70;99.90
23803;DHT22;12082;51.786;6.018;2023-12-14T02:26:14;5.70;99.90
23803;DHT22;12082;51.786;6.018;2023-12-14T02:28:39;5.70;99.90
23803;DHT22;12082;51.786;6.018;2023-12-14T02:31:05;5.60;99.90
23803;DHT22;12082;51.786;6.018;2023-12-14T02:33:31;5.60;99.90
23803;DHT22;12082;51.786;6.018;2023-12-14T02:35:56;5.60;99.90
23803;DHT22;12082;51.786;6.018;2023-12-14T02:38:22;5.60;99.90
23803;DHT22;12082;51.786;6.018;2023-12-14T02:40:47;5.60;99.90
23803;DHT22;12082;51.786;6.018;2023-12-14T02:43:15;5.60;99.90
23803;DHT22;12082;51.786;6.018;2023-12-14T02:45:41;5.60;99.90
23803;DHT22;12082;51.786;6.018;2023-12-14T02:48:06;5.60;99.90
23803;DHT22;12082;51.786;6.018;2023-12-14T02:50:32;5.60;99.90
23803;DHT22;12082;51.786;6.018;2023-12-14T02:52:57;5.60;99.90
23803;DHT22;12082;51.786;6.018;2023-12-14T02:55:23;5.60;99.90
23803;DHT22;12082;51.786;6.018;2023-12-14T02:57:49;5.50;99.90
23803;DHT22;12082;51.786;6.018;2023-12-14T03:00:14;5.60;99.90
23803;DHT22;12082;51.786;6.018;2023-12-14T03:02:40;5.60;99.90
23803;DHT22;12082;51.786;6.018;2023-12-14T03:05:06;5.50;99.90
23803;DHT22;12082;51.786;6.018;2023-12-14T03:07:32;5.50;99.90
23803;DHT22;12082;51.786;6.018;2023-12-14T03:09:57;5.50;99.90
23803;DHT22;12082;51.786;6.018;2023-12-14T03:12:23;5.50;99.90
23803;DHT22;12082;51.786;6.018;2023-12-14T03:14:48;5.50;99.90
23803;DHT22;12082;51.786;6.018;2023-12-14T03:17:14;5.60;99.90
23803;DHT22;12082;51.786;6.018;2023-12-14T03:19:40;5.50;99.90
23803;DHT22;12082;51.786;6.018;2023-12-14T03:22:09;5.50;99.90
23803;DHT22;12082;51.786;6.018;2023-12-14T03:24:35;5.50;99.90
23803;DHT22;12082;51.786;6.018;2023-12-14T03:27:02;5.50;99.90
23803;DHT22;12082;51.786;6.018;2023-12-14T03:29:28;5.50;99.90
23803;DHT22;12082;51.786;6.018;2023-12-14T03:31:57;5.50;99.90
23803;DHT22;12082;51.786;6.018;2023-12-14T03:34:23;5.50;99.90
23803;DHT22;12082;51.786;6.018;2023-12-14T03:36:49;5.50;99.90
23803;DHT22;12082;51.786;6.018;2023-12-14T03:39:15;5.50;99.90
23803;DHT22;12082;51.786;6.018;2023-12-14T03:41:42;5.50;99.90
23803;DHT22;12082;51.786;6.018;2023-12-14T03:44:07;5.50;99.90
23803;DHT22;12082;51.786;6.018;2023-12-14T03:46:33;5.50;99.90
23803;DHT22;12082;51.786;6.018;2023-12-14T03:48:59;5.50;99.90
23803;DHT22;12082;51.786;6.018;2023-12-14T03:51:25;5.50;99.90
23803;DHT22;12082;51.786;6.018;2023-12-14T03:53:51;5.50;99.90
23803;DHT22;12082;51.786;6.018;2023-12-14T03:56:16;5.50;99.90
23803;DHT22;12082;51.786;6.018;2023-12-14T03:58:42;5.50;99.90
23803;DHT22;12082;51.786;6.018;2023-12-14T04:01:07;5.50;99.90
23803;DHT22;12082;51.786;6.018;2023-12-14T04:03:33;5.50;99.90
23803;DHT22;12082;51.786;6.018;2023-12-14T04:05:58;5.40;99.90
23803;DHT22;12082;51.786;6.018;2023-12-14T04:08:24;5.40;99.90
23803;DHT22;12082;51.786;6.018;2023-12-14T04:10:50;5.40;99.90
23803;DHT22;12082;51.786;6.018;2023-12-14T04:13:15;5.40;99.90
23803;DHT22;12082;51.786;6.018;2023-12-14T04:15:41;5.30;99.90
23803;DHT22;12082;51.786;6.018;2023-12-14T04:18:08;5.30;99.90
23803;DHT22;12082;51.786;6.018;2023-12-14T04:20:34;5.30;99.90
23803;DHT22;12082;51.786;6.018;2023-12-14T04:22:59;5.30;99.90
23803;DHT22;12082;51.786;6.018;2023-12-14T04:25:25;5.30;99.90
23803;DHT22;12082;51.786;6.018;2023-12-14T04:27:50;5.30;99.90
23803;DHT22;12082;51.786;6.018;2023-12-14T04:30:16;5.30;99.90
23803;DHT22;12082;51.786;6.018;2023-12-14T04:32:41;5.30;99.90
23803;DHT22;12082;51.786;6.018;2023-12-14T04:35:07;5.30;99.90
23803;DHT22;12082;51.786;6.018;2023-12-14T04:37:33;5.30;99.90
23803;DHT22;12082;51.786;6.018;2023-12-14T04:39:59;5.30;99.90
23803;DHT22;12082;51.786;6.018;2023-12-14T04:42:25;5.30;99.90
23803;DHT22;12082;51.786;6.018;2023-12-14T04:44:51;5.30;99.90
23803;DHT22;12082;51.786;6.018;2023-12-14T04:47:17;5.30;99.90
23803;DHT22;12082;51.786;6.018;2023-12-14T04:49:42;5.30;99.90
23803;DHT22;12082;51.786;6.018;2023-12-14T04:52:08;5.30;99.90
23803;DHT22;12082;51.786;6.018;2023-12-14T04:54:34;5.30;99.90
23803;DHT22;12082;51.786;6.018;2023-12-14T04:57:03;5.30;99.90
23803;DHT22;12082;51.786;6.018;2023-12-14T04:59:29;5.30;99.90
23803;DHT22;12082;51.786;6.018;2023-12-14T05:01:54;5.30;99.90
23803;DHT22;12082;51.786;6.018;2023-12-14T05:04:20;5.30;99.90
23803;DHT22;12082;51.786;6.018;2023-12-14T05:06:45;5.30;99.90
23803;DHT22;12082;51.786;6.018;2023-12-14T05:09:11;5.30;99.90
23803;DHT22;12082;51.786;6.018;2023-12-14T05:11:39;5.30;99.90
23803;DHT22;12082;51.786;6.018;2023-12-14T05:14:04;5.30;99.90
23803;DHT22;12082;51.786;6.018;2023-12-14T05:16:30;5.30;99.90
23803;DHT22;12082;51.786;6.018;2023-12-14T05:18:56;5.30;99.90
23803;DHT22;12082;51.786;6.018;2023-12-14T05:21:23;5.20;99.90
23803;DHT22;12082;51.786;6.018;2023-12-14T05:23:48;5.20;99.90
23803;DHT22;12082;51.786;6.018;2023-12-14T05:26:14;5.20;99.90
23803;DHT22;12082;51.786;6.018;2023-12-14T05:28:40;5.20;99.90
23803;DHT22;12082;51.786;6.018;2023-12-14T05:31:06;5.20;99.90
23803;DHT22;12082;51.786;6.018;2023-12-14T05:33:31;5.20;99.90
23803;DHT22;12082;51.786;6.018;2023-12-14T05:35:59;5.20;99.90
23803;DHT22;12082;51.786;6.018;2023-12-14T05:38:24;5.20;99.90
23803;DHT22;12082;51.786;6.018;2023-12-14T05:40:50;5.20;99.90
23803;DHT22;12082;51.786;6.018;2023-12-14T05:43:15;5.30;99.90
23803;DHT22;12082;51.786;6.018;2023-12-14T05:45:41;5.20;99.90
23803;DHT22;12082;51.786;6.018;2023-12-14T05:48:07;5.20;99.90
23803;DHT22;12082;51.786;6.018;2023-12-14T05:50:32;5.20;99.90
23803;DHT22;12082;51.786;6.018;2023-12-14T05:52:58;5.20;99.90
23803;DHT22;12082;51.786;6.018;2023-12-14T05:55:23;5.20;99.90
23803;DHT22;12082;51.786;6.018;2023-12-14T05:57:49;5.20;99.90
23803;DHT22;12082;51.786;6.018;2023-12-14T06:00:15;5.20;99.90
23803;DHT22;12082;51.786;6.018;2023-12-14T06:02:41;5.20;99.90
23803;DHT22;12082;51.786;6.018;2023-12-14T06:05:07;5.20;99.90
23803;DHT22;12082;51.786;6.018;2023-12-14T06:07:33;5.10;99.90
23803;DHT22;12082;51.786;6.018;2023-12-14T06:09:58;5.10;99.90
23803;DHT22;12082;51.786;6.018;2023-12-14T06:12:24;5.10;99.90
23803;DHT22;12082;51.786;6.018;2023-12-14T06:14:50;5.10;99.90
23803;DHT22;12082;51.786;6.018;2023-12-14T06:17:16;5.10;99.90
23803;DHT22;12082;51.786;6.018;2023-12-14T06:19:42;5.10;99.90
23803;DHT22;12082;51.786;6.018;2023-12-14T06:22:07;5.10;99.90
23803;DHT22;12082;51.786;6.018;2023-12-14T06:24:33;5.10;99.90
23803;DHT22;12082;51.786;6.018;2023-12-14T06:26:59;5.10;99.90
23803;DHT22;12082;51.786;6.018;2023-12-14T06:29:25;5.10;99.90
23803;DHT22;12082;51.786;6.018;2023-12-14T06:31:50;5.10;99.90
23803;DHT22;12082;51.786;6.018;2023-12-14T06:34:16;5.10;99.90
23803;DHT22;12082;51.786;6.018;2023-12-14T06:36:45;5.10;99.90
23803;DHT22;12082;51.786;6.018;2023-12-14T06:39:11;5.10;99.90
23803;DHT22;12082;51.786;6.018;2023-12-14T06:41:37;5.10;99.90
23803;DHT22;12082;51.786;6.018;2023-12-14T06:44:03;5.10;99.90
23803;DHT22;12082;51.786;6.018;2023-12-14T06:46:29;5.10;99.90
23803;DHT22;12082;51.786;6.018;2023-12-14T06:48:54;5.10;99.90
23803;DHT22;12082;51.786;6.018;2023-12-14T06:51:21;5.10;99.90
23803;DHT22;12082;51.786;6.018;2023-12-14T06:53:47;5.10;99.90
23803;DHT22;12082;51.786;6.018;2023-12-14T06:56:13;5.10;99.90
23803;DHT22;12082;51.786;6.018;2023-12-14T06:58:40;5.10;99.90
23803;DHT22;12082;51.786;6.018;2023-12-14T07:01:06;5.10;99.90
23803;DHT22;12082;51.786;6.018;2023-12-14T07:03:31;5.10;99.90
23803;DHT22;12082;51.786;6.018;2023-12-14T07:05:58;5.00;99.90
23803;DHT22;12082;51.786;6.018;2023-12-14T07:08:24;5.10;99.90
23803;DHT22;12082;51.786;6.018;2023-12-14T07:10:49;5.00;99.90
23803;DHT22;12082;51.786;6.018;2023-12-14T07:13:15;5.00;99.90
23803;DHT22;12082;51.786;6.018;2023-12-14T07:15:40;5.00;99.90
23803;DHT22;12082;51.786;6.018;2023-12-14T07:18:06;5.00;99.90
23803;DHT22;12082;51.786;6.018;2023-12-14T07:20:32;5.00;99.90
23803;DHT22;12082;51.786;6.018;2023-12-14T07:22:57;5.00;99.90
23803;DHT22;12082;51.786;6.018;2023-12-14T07:25:23;5.00;99.90
23803;DHT22;12082;51.786;6.018;2023-12-14T07:27:48;5.00;99.90
23803;DHT22;12082;51.786;6.018;2023-12-14T07:30:14;5.00;99.90
23803;DHT22;12082;51.786;6.018;2023-12-14T07:32:40;5.00;99.90
23803;DHT22;12082;51.786;6.018;2023-12-14T07:35:05;5.00;99.90
23803;DHT22;12082;51.786;6.018;2023-12-14T07:37:31;5.00;99.90
23803;DHT22;12082;51.786;6.018;2023-12-14T07:39:57;5.00;99.90
23803;DHT22;12082;51.786;6.018;2023-12-14T07:42:23;5.00;99.90
23803;DHT22;12082;51.786;6.018;2023-12-14T07:44:49;5.00;99.90
23803;DHT22;12082;51.786;6.018;2023-12-14T07:47:15;5.00;99.90
23803;DHT22;12082;51.786;6.018;2023-12-14T07:49:40;5.00;99.90
23803;DHT22;12082;51.786;6.018;2023-12-14T07:52:06;5.00;99.90
23803;DHT22;12082;51.786;6.018;2023-12-14T07:54:32;4.90;99.90
23803;DHT22;12082;51.786;6.018;2023-12-14T07:56:57;4.90;99.90
23803;DHT22;12082;51.786;6.018;2023-12-14T07:59:23;4.90;99.90
23803;DHT22;12082;51.786;6.018;2023-12-14T08:01:48;4.90;99.90
23803;DHT22;12082;51.786;6.018;2023-12-14T08:04:14;4.90;99.90
23803;DHT22;12082;51.786;6.018;2023-12-14T08:06:40;4.90;99.90
23803;DHT22;12082;51.786;6.018;2023-12-14T08:09:06;4.90;99.90
23803;DHT22;12082;51.786;6.018;2023-12-14T08:11:33;4.90;99.90
23803;DHT22;12082;51.786;6.018;2023-12-14T08:13:59;4.80;99.90
23803;DHT22;12082;51.786;6.018;2023-12-14T08:16:24;4.80;99.90
23803;DHT22;12082;51.786;6.018;2023-12-14T08:18:50;4.90;99.90
23803;DHT22;12082;51.786;6.018;2023-12-14T08:21:17;4.80;99.90
23803;DHT22;12082;51.786;6.018;2023-12-14T08:23:43;4.90;99.90
23803;DHT22;12082;51.786;6.018;2023-12-14T08:26:08;4.90;99.90
23803;DHT22;12082;51.786;6.018;2023-12-14T08:28:35;4.90;99.90
23803;DHT22;12082;51.786;6.018;2023-12-14T08:31:01;4.90;99.90
23803;DHT22;12082;51.786;6.018;2023-12-14T08:33:30;4.90;99.90
23803;DHT22;12082;51.786;6.018;2023-12-14T08:35:57;4.80;99.90
23803;DHT22;12082;51.786;6.018;2023-12-14T08:38:22;4.90;99.90
23803;DHT22;12082;51.786;6.018;2023-12-14T08:40:48;4.90;99.90
23803;DHT22;12082;51.786;6.018;2023-12-14T08:43:14;4.90;99.90
23803;DHT22;12082;51.786;6.018;2023-12-14T08:45:39;4.80;99.90
23803;DHT22;12082;51.786;6.018;2023-12-14T08:48:05;4.80;99.90
23803;DHT22;12082;51.786;6.018;2023-12-14T08:50:31;4.80;99.90
23803;DHT22;12082;51.786;6.018;2023-12-14T08:52:57;4.80;99.90
23803;DHT22;12082;51.786;6.018;2023-12-14T08:55:26;4.80;99.90
23803;DHT22;12082;51.786;6.018;2023-12-14T08:57:52;4.80;99.90
23803;DHT22;12082;51.786;6.018;2023-12-14T09:00:18;4.80;99.90
23803;DHT22;12082;51.786;6.018;2023-12-14T09:02:44;4.70;99.90
23803;DHT22;12082;51.786;6.018;2023-12-14T09:05:12;4.70;99.90
23803;DHT22;12082;51.786;6.018;2023-12-14T09:07:38;4.70;99.90
23803;DHT22;12082;51.786;6.018;2023-12-14T09:10:04;4.70;99.90
23803;DHT22;12082;51.786;6.018;2023-12-14T09:12:30;4.60;99.90
23803;DHT22;12082;51.786;6.018;2023-12-14T09:14:55;4.60;99.90
23803;DHT22;12082;51.786;6.018;2023-12-14T09:17:21;5.10;99.90
23803;DHT22;12082;51.786;6.018;2023-12-14T09:19:47;4.60;99.90
23803;DHT22;12082;51.786;6.018;2023-12-14T09:22:12;4.60;99.90
23803;DHT22;12082;51.786;6.018;2023-12-14T09:24:39;4.70;99.90
23803;DHT22;12082;51.786;6.018;2023-12-14T09:27:04;4.70;99.90
23803;DHT22;12082;51.786;6.018;2023-12-14T09:29:30;4.70;99.90
23803;DHT22;12082;51.786;6.018;2023-12-14T09:31:56;4.70;99.90
23803;DHT22;12082;51.786;6.018;2023-12-14T09:34:22;4.70;99.90
23803;DHT22;12082;51.786;6.018;2023-12-14T09:36:47;4.80;99.90
23803;DHT22;12082;51.786;6.018;2023-12-14T09:39:13;4.70;99.90
23803;DHT22;12082;51.786;6.018;2023-12-14T09:41:40;4.80;99.90
23803;DHT22;12082;51.786;6.018;2023-12-14T09:44:06;4.80;99.90
23803;DHT22;12082;51.786;6.018;2023-12-14T09:46:34;4.80;99.90
23803;DHT22;12082;51.786;6.018;2023-12-14T09:49:02;4.90;99.90
23803;DHT22;12082;51.786;6.018;2023-12-14T09:51:29;4.80;99.90
23803;DHT22;12082;51.786;6.018;2023-12-14T09:53:56;4.80;99.90
23803;DHT22;12082;51.786;6.018;2023-12-14T09:56:24;4.90;99.90
23803;DHT22;12082;51.786;6.018;2023-12-14T09:58:50;4.80;99.90
23803;DHT22;12082;51.786;6.018;2023-12-14T10:01:27;4.90;99.90
23803;DHT22;12082;51.786;6.018;2023-12-14T10:04:10;4.90;99.90
23803;DHT22;12082;51.786;6.018;2023-12-14T10:06:36;4.90;99.90
23803;DHT22;12082;51.786;6.018;2023-12-14T10:09:02;4.90;99.90
23803;DHT22;12082;51.786;6.018;2023-12-14T10:11:28;4.90;99.90
23803;DHT22;12082;51.786;6.018;2023-12-14T10:13:54;5.00;99.90
23803;DHT22;12082;51.786;6.018;2023-12-14T10:16:33;5.00;99.90
23803;DHT22;12082;51.786;6.018;2023-12-14T10:18:59;5.00;99.90
23803;DHT22;12082;51.786;6.018;2023-12-14T10:21:29;5.00;99.90
23803;DHT22;12082;51.786;6.018;2023-12-14T10:23:57;5.00;99.90
23803;DHT22;12082;51.786;6.018;2023-12-14T10:26:24;5.00;99.90
23803;DHT22;12082;51.786;6.018;2023-12-14T10:28:51;5.00;99.90
23803;DHT22;12082;51.786;6.018;2023-12-14T10:31:18;5.00;99.90
23803;DHT22;12082;51.786;6.018;2023-12-14T10:33:45;4.90;99.90
23803;DHT22;12082;51.786;6.018;2023-12-14T10:36:13;5.00;99.90
23803;DHT22;12082;51.786;6.018;2023-12-14T10:38:39;4.90;99.90
23803;DHT22;12082;51.786;6.018;2023-12-14T10:41:05;5.00;99.90
23803;DHT22;12082;51.786;6.018;2023-12-14T10:43:36;5.00;99.90
23803;DHT22;12082;51.786;6.018;2023-12-14T10:46:01;5.00;99.90
23803;DHT22;12082;51.786;6.018;2023-12-14T10:48:30;5.00;99.90
23803;DHT22;12082;51.786;6.018;2023-12-14T10:50:57;5.00;99.90
23803;DHT22;12082;51.786;6.018;2023-12-14T10:53:26;5.00;99.90
23803;DHT22;12082;51.786;6.018;2023-12-14T10:55:52;5.00;99.90
23803;DHT22;12082;51.786;6.018;2023-12-14T10:58:19;5.00;99.90
23803;DHT22;12082;51.786;6.018;2023-12-14T11:01:00;5.00;99.90
23803;DHT22;12082;51.786;6.018;2023-12-14T11:03:35;5.00;99.90
23803;DHT22;12082;51.786;6.018;2023-12-14T11:06:01;5.00;99.90
23803;DHT22;12082;51.786;6.018;2023-12-14T11:08:27;5.00;99.90
23803;DHT22;12082;51.786;6.018;2023-12-14T11:10:54;5.00;99.90
23803;DHT22;12082;51.786;6.018;2023-12-14T11:13:23;5.00;99.90
23803;DHT22;12082;51.786;6.018;2023-12-14T11:15:51;5.10;99.90
23803;DHT22;12082;51.786;6.018;2023-12-14T11:25:56;5.20;99.90
23803;DHT22;12082;51.786;6.018;2023-12-14T11:28:22;5.30;99.90
23803;DHT22;12082;51.786;6.018;2023-12-14T11:30:48;5.20;99.90
23803;DHT22;12082;51.786;6.018;2023-12-14T11:33:14;5.30;99.90
23803;DHT22;12082;51.786;6.018;2023-12-14T11:35:41;5.30;99.90
23803;DHT22;12082;51.786;6.018;2023-12-14T11:38:06;5.20;99.90
23803;DHT22;12082;51.786;6.018;2023-12-14T11:40:41;5.20;99.90
23803;DHT22;12082;51.786;6.018;2023-12-14T11:43:07;5.20;99.90
23803;DHT22;12082;51.786;6.018;2023-12-14T11:45:34;5.20;99.90
23803;DHT22;12082;51.786;6.018;2023-12-14T11:48:00;5.20;99.90
23803;DHT22;12082;51.786;6.018;2023-12-14T11:50:27;5.30;99.90
23803;DHT22;12082;51.786;6.018;2023-12-14T11:52:53;5.30;99.90
23803;DHT22;12082;51.786;6.018;2023-12-14T11:55:19;5.30;99.90
23803;DHT22;12082;51.786;6.018;2023-12-14T11:57:46;5.20;99.90
23803;DHT22;12082;51.786;6.018;2023-12-14T12:00:13;5.40;99.90
23803;DHT22;12082;51.786;6.018;2023-12-14T12:02:39;5.40;99.90
23803;DHT22;12082;51.786;6.018;2023-12-14T12:05:06;5.40;99.90
23803;DHT22;12082;51.786;6.018;2023-12-14T12:07:32;5.40;99.90
23803;DHT22;12082;51.786;6.018;2023-12-14T12:09:59;5.40;99.90
23803;DHT22;12082;51.786;6.018;2023-12-14T12:12:24;5.40;99.90
23803;DHT22;12082;51.786;6.018;2023-12-14T12:14:50;5.40;99.90
23803;DHT22;12082;51.786;6.018;2023-12-14T12:17:18;5.40;99.90
23803;DHT22;12082;51.786;6.018;2023-12-14T12:19:45;5.40;99.90
23803;DHT22;12082;51.786;6.018;2023-12-14T12:22:11;5.40;99.90
23803;DHT22;12082;51.786;6.018;2023-12-14T12:24:36;5.40;99.90
23803;DHT22;12082;51.786;6.018;2023-12-14T12:27:03;5.40;99.90
23803;DHT22;12082;51.786;6.018;2023-12-14T12:29:30;5.40;99.90
23803;DHT22;12082;51.786;6.018;2023-12-14T12:31:55;5.40;99.90
23803;DHT22;12082;51.786;6.018;2023-12-14T12:34:21;5.40;99.90
23803;DHT22;12082;51.786;6.018;2023-12-14T12:36:46;5.50;99.90
23803;DHT22;12082;51.786;6.018;2023-12-14T12:39:12;5.50;99.90
23803;DHT22;12082;51.786;6.018;2023-12-14T12:41:38;5.50;99.90
23803;DHT22;12082;51.786;6.018;2023-12-14T12:44:04;5.50;99.90
23803;DHT22;12082;51.786;6.018;2023-12-14T12:46:34;5.50;99.90
23803;DHT22;12082;51.786;6.018;2023-12-14T12:49:01;5.60;99.90
23803;DHT22;12082;51.786;6.018;2023-12-14T12:51:28;5.60;99.90
23803;DHT22;12082;51.786;6.018;2023-12-14T12:53:55;5.60;99.90
23803;DHT22;12082;51.786;6.018;2023-12-14T12:56:24;5.60;99.90
23803;DHT22;12082;51.786;6.018;2023-12-14T12:58:50;5.60;99.90
23803;DHT22;12082;51.786;6.018;2023-12-14T13:01:17;5.60;99.90
23803;DHT22;12082;51.786;6.018;2023-12-14T13:03:43;5.60;99.90
23803;DHT22;12082;51.786;6.018;2023-12-14T13:06:08;5.60;99.90
23803;DHT22;12082;51.786;6.018;2023-12-14T13:08:34;5.60;99.90
23803;DHT22;12082;51.786;6.018;2023-12-14T13:10:59;5.60;99.90
23803;DHT22;12082;51.786;6.018;2023-12-14T13:13:25;5.60;99.90
23803;DHT22;12082;51.786;6.018;2023-12-14T13:15:50;5.60;99.90
23803;DHT22;12082;51.786;6.018;2023-12-14T13:18:16;5.60;99.90
23803;DHT22;12082;51.786;6.018;2023-12-14T13:20:42;5.50;99.90
23803;DHT22;12082;51.786;6.018;2023-12-14T13:23:08;5.50;99.90
23803;DHT22;12082;51.786;6.018;2023-12-14T13:25:35;5.50;99.90
23803;DHT22;12082;51.786;6.018;2023-12-14T13:28:02;5.50;99.90
23803;DHT22;12082;51.786;6.018;2023-12-14T13:30:29;5.60;99.90
23803;DHT22;12082;51.786;6.018;2023-12-14T13:32:54;5.50;99.90
23803;DHT22;12082;51.786;6.018;2023-12-14T13:35:20;5.60;99.90
23803;DHT22;12082;51.786;6.018;2023-12-14T13:37:47;5.50;99.90
23803;DHT22;12082;51.786;6.018;2023-12-14T13:40:13;5.60;99.90
23803;DHT22;12082;51.786;6.018;2023-12-14T13:42:39;5.60;99.90
23803;DHT22;12082;51.786;6.018;2023-12-14T13:45:05;5.70;99.90
23803;DHT22;12082;51.786;6.018;2023-12-14T13:47:30;5.60;99.90
23803;DHT22;12082;51.786;6.018;2023-12-14T13:49:56;5.70;99.90
23803;DHT22;12082;51.786;6.018;2023-12-14T13:52:21;5.70;99.90
23803;DHT22;12082;51.786;6.018;2023-12-14T13:54:47;5.70;99.90
23803;DHT22;12082;51.786;6.018;2023-12-14T13:57:12;5.70;99.90
23803;DHT22;12082;51.786;6.018;2023-12-14T13:59:38;5.80;99.90
23803;DHT22;12082;51.786;6.018;2023-12-14T14:02:04;5.80;99.90
23803;DHT22;12082;51.786;6.018;2023-12-14T14:04:29;5.70;99.90
23803;DHT22;12082;51.786;6.018;2023-12-14T14:06:55;5.80;99.90
23803;DHT22;12082;51.786;6.018;2023-12-14T14:09:22;5.70;99.90
23803;DHT22;12082;51.786;6.018;2023-12-14T14:11:47;5.70;99.90
23803;DHT22;12082;51.786;6.018;2023-12-14T14:14:14;5.60;99.90
23803;DHT22;12082;51.786;6.018;2023-12-14T14:16:40;5.60;99.90
23803;DHT22;12082;51.786;6.018;2023-12-14T14:19:07;5.60;99.90
23803;DHT22;12082;51.786;6.018;2023-12-14T14:21:32;5.60;99.90
23803;DHT22;12082;51.786;6.018;2023-12-14T14:23:58;5.60;99.90
23803;DHT22;12082;51.786;6.018;2023-12-14T14:26:24;5.50;99.90
23803;DHT22;12082;51.786;6.018;2023-12-14T14:28:49;5.50;99.90
23803;DHT22;12082;51.786;6.018;2023-12-14T14:31:15;5.50;99.90
23803;DHT22;12082;51.786;6.018;2023-12-14T14:33:40;5.40;99.90
23803;DHT22;12082;51.786;6.018;2023-12-14T14:36:06;5.40;99.90
23803;DHT22;12082;51.786;6.018;2023-12-14T14:38:33;5.40;99.90
23803;DHT22;12082;51.786;6.018;2023-12-14T14:40:59;5.40;99.90
23803;DHT22;12082;51.786;6.018;2023-12-14T14:43:24;5.40;99.90
23803;DHT22;12082;51.786;6.018;2023-12-14T14:45:50;5.40;99.90
23803;DHT22;12082;51.786;6.018;2023-12-14T14:48:15;5.40;99.90
23803;DHT22;12082;51.786;6.018;2023-12-14T14:50:42;5.50;99.90
23803;DHT22;12082;51.786;6.018;2023-12-14T14:53:08;5.50;99.90
23803;DHT22;12082;51.786;6.018;2023-12-14T14:55:33;5.50;99.90
23803;DHT22;12082;51.786;6.018;2023-12-14T14:58:00;5.50;99.90
23803;DHT22;12082;51.786;6.018;2023-12-14T15:00:25;5.40;99.90
23803;DHT22;12082;51.786;6.018;2023-12-14T15:02:52;5.40;99.90
23803;DHT22;12082;51.786;6.018;2023-12-14T15:05:17;5.50;99.90
23803;DHT22;12082;51.786;6.018;2023-12-14T15:07:43;5.50;99.90
23803;DHT22;12082;51.786;6.018;2023-12-14T15:10:09;5.50;99.90
23803;DHT22;12082;51.786;6.018;2023-12-14T15:12:34;5.50;99.90
23803;DHT22;12082;51.786;6.018;2023-12-14T15:15:00;5.50;99.90
23803;DHT22;12082;51.786;6.018;2023-12-14T15:17:25;5.50;99.90
23803;DHT22;12082;51.786;6.018;2023-12-14T15:19:51;5.50;99.90
23803;DHT22;12082;51.786;6.018;2023-12-14T15:22:16;5.50;99.90
23803;DHT22;12082;51.786;6.018;2023-12-14T15:24:42;5.40;99.90
23803;DHT22;12082;51.786;6.018;2023-12-14T15:27:08;5.30;99.90
23803;DHT22;12082;51.786;6.018;2023-12-14T15:29:34;5.30;99.90
23803;DHT22;12082;51.786;6.018;2023-12-14T15:31:59;5.20;99.90
23803;DHT22;12082;51.786;6.018;2023-12-14T15:34:25;5.10;99.90
23803;DHT22;12082;51.786;6.018;2023-12-14T15:36:50;5.00;99.90
23803;DHT22;12082;51.786;6.018;2023-12-14T15:39:16;5.00;99.90
23803;DHT22;12082;51.786;6.018;2023-12-14T15:41:41;4.90;99.90
23803;DHT22;12082;51.786;6.018;2023-12-14T15:44:07;4.90;99.90